Pago Pago, AS

2:05 PM SST on September 19, 2014 (GMT -1100)
Kona International At Keahole | Change Station
CLOSE
Current Station
Airport
Location: Keahole Point,
Elevation: 43 ft
Nearby Weather Stations

Elev 43 ft 19.74 °N, 156.05 °W | Updated 12 minutes ago

Clear
Clear
86 °F
Feels Like 93 °F
N
10
Wind Variable Wind from West

Today
High -- | Low -- °F
--% Chance of Precip.
Yesterday
High -- | Low -- °F
Precip. -- in
6:14 AM 6:18 PM
Waning Crescent, 16% visible
Pressure 29.86 in
Visibility 10.0 miles
Clouds Clear
Heat Index 93 °F
Dew Point 73 °F
Humidity 65%
Rainfall 0.00 in
Snow Depth Not available.
UV 7 out of 12
Pollen Not available.
Air Quality Not available.
Flu Activity Not available.
METAR PHKO 200053Z 27009KT 10SM CLR 30/23 A2986 RMK AO2 SLP110 T03000228

More Conditions Fewer Conditions

Pressure 29.86 in
Visibility 10.0 miles
Clouds Clear
Heat Index 93 °F
Dew Point 73 °F
Humidity 65%
Rainfall 0.00 in
Snow Depth Not available.
UV 7 out of 12
Pollen Not available.
Air Quality Not available.
Flu Activity Not available.
METAR PHKO 200053Z 27009KT 10SM CLR 30/23 A2986 RMK AO2 SLP110 T03000228

More Conditions Fewer Conditions

10-Day Weather Forecast

Almanac

Astronomy

Sep. 19, 2014 Rise Set
Actual Time 6:14 AM SST 6:18 PM SST
Civil Twilight 5:53 AM SST 6:40 PM SST
Nautical Twilight 5:28 AM SST 7:04 PM SST
Astronomical Twilight 5:03 AM SST 7:29 PM SST
Moon 3:10 AM SST (9/19) 3:03 PM SST (9/19)
Length of Visible Light 12h 46m
Length of Day
12h 04m
Tomorrow will be 0m 47s longer.
Waning Crescent, 16% of the Moon is Illuminated
Today
Waning Crescent
Sep 24
New
Oct 1
First Quarter
Oct 8
Full
Oct 15
Last Quarter

Community

WunderPhotos

Upload Photos

1,754,756 photos uploaded!

WunderBlogs® & News

Nearby

Snow Depth

Station Depth Elevation
No new snow has been reported.

Earthquake Activity

City Distance Mag. Time & Date
No recent earthquake activity has been reported nearby.
Minimum magnitude displayed is 2.5.

Coastal Water Temperatures

Place Temperature
No Stations Reporting

Nearby Weather Stations